createdAt,value
2018-11-20T00:00:46.325Z,79.30
2018-11-20T00:03:38.339Z,84.13
2018-11-20T00:06:24.692Z,85.87
2018-11-20T00:09:21.489Z,86.77
2018-11-20T00:12:16.141Z,86.80
2018-11-20T00:14:55.667Z,82.03
2018-11-20T00:17:34.360Z,84.27
2018-11-20T00:20:36.530Z,87.70
2018-11-20T00:23:34.853Z,81.80
2018-11-20T00:26:27.391Z,81.23
2018-11-20T00:29:08.678Z,85.40
2018-11-20T00:31:52.593Z,80.03
2018-11-20T00:34:45.194Z,81.20
2018-11-20T00:37:35.039Z,81.70
2018-11-20T00:40:26.378Z,79.97
2018-11-20T00:43:16.038Z,81.80
2018-11-20T00:46:17.387Z,78.37
2018-11-20T00:49:04.991Z,79.57
2018-11-20T00:51:49.622Z,78.20
2018-11-20T00:54:44.599Z,78.37
2018-11-20T00:57:36.336Z,77.30
2018-11-20T01:00:16.314Z,75.00
2018-11-20T01:03:09.355Z,77.60
2018-11-20T01:06:05.211Z,77.90
2018-11-20T01:08:57.387Z,75.93
2018-11-20T01:11:47.133Z,76.70
2018-11-20T01:14:39.506Z,73.07
2018-11-20T01:17:38.127Z,73.17
2018-11-20T01:20:26.846Z,69.90
2018-11-20T01:23:08.008Z,70.37
2018-11-20T01:26:03.579Z,69.47
2018-11-20T01:28:55.605Z,66.90
2018-11-20T01:31:35.866Z,66.07
2018-11-20T01:34:30.955Z,64.70
2018-11-20T01:37:26.773Z,64.23
2018-11-20T01:40:18.881Z,62.17
2018-11-20T01:43:16.480Z,61.17
2018-11-20T01:46:12.084Z,59.70
2018-11-20T01:48:53.986Z,59.07
2018-11-20T01:51:45.614Z,58.77
2018-11-20T01:54:24.826Z,56.33
2018-11-20T01:57:15.522Z,56.27
2018-11-20T02:00:11.521Z,56.43
2018-11-20T02:03:01.901Z,57.30
2018-11-20T02:05:51.114Z,54.23
2018-11-20T02:08:58.230Z,56.20
2018-11-20T02:11:49.786Z,54.37
2018-11-20T02:14:57.864Z,52.20
2018-11-20T02:17:52.550Z,55.40
2018-11-20T02:20:41.451Z,55.30
2018-11-20T02:23:28.963Z,53.73
2018-11-20T02:26:16.649Z,52.90
2018-11-20T02:29:21.551Z,52.00
2018-11-20T02:32:19.895Z,51.57
2018-11-20T02:35:09.684Z,51.53
2018-11-20T02:38:03.491Z,52.20
2018-11-20T02:40:52.645Z,49.47
2018-11-20T02:43:41.823Z,50.93
2018-11-20T02:46:22.590Z,49.10
2018-11-20T02:49:15.399Z,49.40
2018-11-20T02:52:05.716Z,47.60
2018-11-20T02:54:52.910Z,48.53
2018-11-20T02:57:41.545Z,47.30
2018-11-20T03:00:39.105Z,44.00
2018-11-20T03:03:30.559Z,45.87
2018-11-20T03:06:33.158Z,46.00
2018-11-20T03:09:31.296Z,45.47
2018-11-20T03:12:18.517Z,44.13
2018-11-20T03:15:21.070Z,43.27
2018-11-20T03:18:16.638Z,41.93
2018-11-20T03:21:10.401Z,42.43
2018-11-20T03:23:58.153Z,41.97
2018-11-20T03:26:55.770Z,40.60
2018-11-20T03:30:15.913Z,40.20
2018-11-20T03:33:09.574Z,40.40
2018-11-20T03:36:09.495Z,37.60
2018-11-20T03:39:04.599Z,37.00
2018-11-20T03:41:50.085Z,35.20
2018-11-20T03:44:42.804Z,36.43
2018-11-20T03:47:37.679Z,35.73
2018-11-20T03:50:39.617Z,36.40
2018-11-20T03:53:38.146Z,35.93
2018-11-20T03:56:28.055Z,35.43
2018-11-20T03:59:16.014Z,33.30
2018-11-20T04:02:11.584Z,34.20
2018-11-20T04:05:03.427Z,33.77
2018-11-20T04:07:53.916Z,33.40
2018-11-20T04:10:45.367Z,33.20
2018-11-20T04:13:35.093Z,33.13
2018-11-20T04:19:59.676Z,52.50
2018-11-20T04:22:47.550Z,47.93
2018-11-20T04:25:25.321Z,46.90
2018-11-20T04:28:13.411Z,43.93
2018-11-20T04:31:32.763Z,42.40
2018-11-20T04:34:07.957Z,38.47
2018-11-20T04:36:50.408Z,38.90
2018-11-20T04:39:36.861Z,36.70
2018-11-20T04:42:36.820Z,37.63
2018-11-20T04:45:17.692Z,36.80
2018-11-20T04:48:11.523Z,37.63
2018-11-20T04:51:08.829Z,38.03
2018-11-20T04:53:59.601Z,39.13
2018-11-20T04:56:50.336Z,38.20
2018-11-20T04:59:31.598Z,40.47
2018-11-20T05:02:16.302Z,40.40
2018-11-20T05:05:16.392Z,40.60
2018-11-20T05:08:03.307Z,40.30
2018-11-20T05:10:49.003Z,41.97
2018-11-20T05:13:36.933Z,41.07
2018-11-20T05:16:30.816Z,43.70
2018-11-20T05:19:17.259Z,43.43
2018-11-20T05:22:03.650Z,41.87
2018-11-20T05:25:09.985Z,44.93
2018-11-20T05:28:03.880Z,45.67
2018-11-20T05:30:57.449Z,46.43
2018-11-20T05:33:45.354Z,46.23
2018-11-20T05:36:51.519Z,50.63
2018-11-20T05:39:29.699Z,52.43
2018-11-20T05:42:16.521Z,49.10
2018-11-20T05:45:03.263Z,51.57
2018-11-20T05:47:59.927Z,57.73
2018-11-20T05:50:46.562Z,66.03
2018-11-20T05:53:40.402Z,69.13
2018-11-20T05:56:25.539Z,66.43
2018-11-20T05:59:13.535Z,67.83
2018-11-20T06:01:59.816Z,68.93
2018-11-20T06:04:47.781Z,76.70
2018-11-20T06:07:34.604Z,76.23
2018-11-20T06:10:21.077Z,78.63
2018-11-20T06:12:58.972Z,77.87
2018-11-20T06:15:49.520Z,78.47
2018-11-20T06:18:36.010Z,76.70
2018-11-20T06:21:42.432Z,77.23
2018-11-20T06:24:32.953Z,76.57
2018-11-20T06:27:39.190Z,72.03
2018-11-20T06:30:26.317Z,68.87
2018-11-20T06:33:20.204Z,71.47
2018-11-20T06:36:06.495Z,74.20
2018-11-20T06:39:03.043Z,71.47
2018-11-20T06:41:50.954Z,70.17
2018-11-20T06:44:53.945Z,69.00
2018-11-20T06:47:47.613Z,70.60
2018-11-20T06:50:38.182Z,66.20
2018-11-20T06:53:36.189Z,66.37
2018-11-20T06:56:22.743Z,66.90
2018-11-20T06:59:13.196Z,63.33
2018-11-20T07:02:12.871Z,64.03
2018-11-20T07:04:59.619Z,61.27
2018-11-20T07:07:50.547Z,61.90
2018-11-20T07:10:37.134Z,60.63
2018-11-20T07:13:35.360Z,61.30
2018-11-20T07:17:00.491Z,59.77
2018-11-20T07:19:49.741Z,61.03
2018-11-20T07:22:36.457Z,58.83
2018-11-20T07:25:30.392Z,59.00
2018-11-20T07:28:16.668Z,58.37
2018-11-20T07:31:03.495Z,57.40
2018-11-20T07:33:50.108Z,59.27
2018-11-20T07:36:49.742Z,54.77
2018-11-20T07:39:43.420Z,54.27
2018-11-20T07:42:46.575Z,53.47
2018-11-20T07:45:33.215Z,52.53
2018-11-20T07:48:24.109Z,54.07
2018-11-20T07:51:14.689Z,51.97
2018-11-20T07:54:11.465Z,52.83
2018-11-20T07:57:05.654Z,53.63
2018-11-20T08:00:11.668Z,52.23
2018-11-20T08:02:58.348Z,52.60
2018-11-20T08:06:05.880Z,50.80
2018-11-20T08:08:53.821Z,48.70
2018-11-20T08:11:53.878Z,48.50
2018-11-20T08:14:44.717Z,50.03
2018-11-20T08:17:31.043Z,47.73
2018-11-20T08:20:17.828Z,48.90
2018-11-20T08:23:14.812Z,49.37
2018-11-20T08:25:57.280Z,47.77
2018-11-20T08:28:43.328Z,48.53
2018-11-20T08:31:37.573Z,46.70
2018-11-20T08:34:25.641Z,47.70
2018-11-20T08:37:07.675Z,45.77
2018-11-20T08:39:54.541Z,46.33
2018-11-20T08:43:00.803Z,44.40
2018-11-20T08:45:47.544Z,45.87
2018-11-20T08:48:53.951Z,44.63
2018-11-20T08:51:40.481Z,42.80
2018-11-20T08:54:43.311Z,42.50
2018-11-20T08:57:29.880Z,40.60
2018-11-20T09:00:24.631Z,40.57
2018-11-20T09:03:11.079Z,39.07
2018-11-20T09:05:57.413Z,37.70
2018-11-20T09:08:45.972Z,38.27
2018-11-20T09:11:32.756Z,36.50
2018-11-20T09:14:34.861Z,36.77
2018-11-20T09:17:31.684Z,37.00
2018-11-20T09:20:22.880Z,35.20
2018-11-20T09:23:16.497Z,32.10
2018-11-20T09:26:13.050Z,33.90
2018-11-20T09:29:13.192Z,30.57
2018-11-20T09:31:59.521Z,32.00
2018-11-20T09:34:46.365Z,29.53
2018-11-20T09:37:31.065Z,29.77
2018-11-20T09:40:54.343Z,28.30
2018-11-20T09:43:46.756Z,28.83
2018-11-20T09:46:31.705Z,28.23
2018-11-20T09:49:19.613Z,27.60
2018-11-20T09:52:06.456Z,25.07
2018-11-20T09:54:53.290Z,26.80
2018-11-20T09:57:41.129Z,27.23
2018-11-20T10:00:27.354Z,26.73
2018-11-20T10:03:23.793Z,24.27
2018-11-20T10:06:29.956Z,24.77
2018-11-20T10:09:20.399Z,25.07
2018-11-20T10:12:17.189Z,23.50
2018-11-20T10:15:16.955Z,23.00
2018-11-20T10:18:19.617Z,23.53
2018-11-20T10:21:19.433Z,23.13
2018-11-20T10:24:25.426Z,21.10
2018-11-20T10:27:12.004Z,20.27
2018-11-20T10:29:58.694Z,20.03
2018-11-20T10:32:46.595Z,20.57
2018-11-20T10:35:49.649Z,20.33
2018-11-20T10:38:36.469Z,19.73
2018-11-20T10:41:18.962Z,19.07
2018-11-20T10:44:05.722Z,19.30
2018-11-20T10:47:11.940Z,18.20
2018-11-20T10:49:58.361Z,17.50
2018-11-20T10:52:54.769Z,17.90
2018-11-20T10:55:31.687Z,17.97
2018-11-20T10:58:18.270Z,16.77
2018-11-20T11:01:05.041Z,16.97
2018-11-20T11:03:51.873Z,15.87
2018-11-20T11:06:30.636Z,16.07
2018-11-20T11:09:30.838Z,16.27
2018-11-20T11:12:17.601Z,16.60
2018-11-20T11:15:11.607Z,15.23
2018-11-20T11:18:11.547Z,14.53
2018-11-20T11:21:03.965Z,15.97
2018-11-20T11:23:50.289Z,14.13
2018-11-20T11:26:38.142Z,14.07
2018-11-20T11:29:38.197Z,14.60
2018-11-20T11:32:32.047Z,13.30
2018-11-20T11:35:26.065Z,13.80
2018-11-20T11:38:19.765Z,13.20
2018-11-20T11:41:20.207Z,13.10
2018-11-20T11:44:06.812Z,13.20
2018-11-20T11:46:56.628Z,14.30
2018-11-20T11:50:00.269Z,14.10
2018-11-20T11:52:51.323Z,15.67
2018-11-20T11:55:37.848Z,15.93
2018-11-20T11:58:25.704Z,18.10
2018-11-20T12:01:16.265Z,19.10
2018-11-20T12:06:43.825Z,18.20
2018-11-20T12:09:30.243Z,17.93
2018-11-20T12:12:16.950Z,17.63
2018-11-20T12:15:11.280Z,17.30
2018-11-20T12:17:57.457Z,17.50
2018-11-20T12:20:43.381Z,17.40
2018-11-20T12:23:27.501Z,18.00
2018-11-20T12:28:36.342Z,18.90
2018-11-20T12:31:19.647Z,19.03
2018-11-20T12:34:03.281Z,20.37
2018-11-20T12:36:59.703Z,20.47
2018-11-20T12:39:46.164Z,21.80
2018-11-20T12:42:34.133Z,21.30
2018-11-20T12:45:37.160Z,20.93
2018-11-20T12:48:25.170Z,22.30
2018-11-20T12:51:13.884Z,22.53
2018-11-20T12:54:20.143Z,21.97
2018-11-20T12:57:10.844Z,21.27
2018-11-20T12:59:58.748Z,22.57
2018-11-20T13:02:46.690Z,22.43
2018-11-20T13:05:33.353Z,23.17
2018-11-20T13:08:32.856Z,23.20
2018-11-20T13:11:21.290Z,23.33
2018-11-20T13:14:09.100Z,25.93
2018-11-20T13:16:55.795Z,24.20
2018-11-20T13:19:42.512Z,25.00
2018-11-20T13:22:31.135Z,25.60
2018-11-20T13:25:17.086Z,25.17
2018-11-20T13:28:03.591Z,25.40
2018-11-20T13:31:00.625Z,25.90
2018-11-20T13:33:37.352Z,24.10
2018-11-20T13:36:23.993Z,24.40
2018-11-20T13:39:02.988Z,22.90
2018-11-20T13:41:52.011Z,24.63
2018-11-20T13:44:47.807Z,21.80
2018-11-20T13:47:53.865Z,22.10
2018-11-20T13:50:35.505Z,24.17
2018-11-20T13:53:41.780Z,24.80
2018-11-20T13:56:28.582Z,21.90
2018-11-20T13:59:15.088Z,23.63
2018-11-20T14:02:15.286Z,23.80
2018-11-20T14:05:01.976Z,21.67
2018-11-20T14:07:48.630Z,21.00
2018-11-20T14:10:45.114Z,21.10
2018-11-20T14:13:35.703Z,20.00
2018-11-20T14:16:22.287Z,21.37
2018-11-20T14:19:09.150Z,21.40
2018-11-20T14:21:57.527Z,22.30
2018-11-20T14:24:43.774Z,20.83
2018-11-20T14:27:22.620Z,21.73
2018-11-20T14:30:16.259Z,20.87
2018-11-20T14:33:02.822Z,20.70
2018-11-20T14:35:50.804Z,20.37
2018-11-20T14:38:37.704Z,18.43
2018-11-20T14:41:31.524Z,18.13
2018-11-20T14:44:10.008Z,18.53
2018-11-20T14:46:56.242Z,19.33
2018-11-20T14:49:44.186Z,18.63
2018-11-20T14:52:34.882Z,19.70
2018-11-20T14:55:34.922Z,17.30
2018-11-20T14:58:12.081Z,18.90
2018-11-20T15:01:12.176Z,18.00
2018-11-20T15:04:11.803Z,18.27
2018-11-20T15:06:58.438Z,17.73
2018-11-20T15:09:52.038Z,16.83
2018-11-20T15:12:38.814Z,16.97
2018-11-20T15:15:28.689Z,16.60
2018-11-20T15:18:13.335Z,16.70
2018-11-20T15:21:06.849Z,14.87
2018-11-20T15:23:44.985Z,15.37
2018-11-20T15:26:31.351Z,15.90
2018-11-20T15:29:25.239Z,15.60
2018-11-20T15:32:13.213Z,15.97
2018-11-20T15:34:59.953Z,15.03
2018-11-20T15:37:50.933Z,14.17
2018-11-20T15:40:34.122Z,15.07
2018-11-20T15:43:40.357Z,14.90
2018-11-20T15:46:31.225Z,14.67
2018-11-20T15:49:19.359Z,14.17
2018-11-20T15:52:13.322Z,17.07
2018-11-20T15:54:59.795Z,19.17
2018-11-20T15:57:46.533Z,19.47
2018-11-20T16:00:31.967Z,20.40
2018-11-20T16:03:23.288Z,20.70
2018-11-20T16:06:10.855Z,18.30
2018-11-20T16:09:04.690Z,19.60
2018-11-20T16:11:46.479Z,19.60
2018-11-20T16:14:32.771Z,21.00
2018-11-20T16:17:20.694Z,20.10
2018-11-20T16:20:08.627Z,19.93
2018-11-20T16:23:05.432Z,19.70
2018-11-20T16:25:51.397Z,20.77
2018-11-20T16:28:39.239Z,22.73
2018-11-20T16:31:42.149Z,22.57
2018-11-20T16:34:30.189Z,23.57
2018-11-20T16:37:24.080Z,24.80
2018-11-20T16:40:11.987Z,25.70
2018-11-20T16:42:52.893Z,27.37
2018-11-20T16:45:39.670Z,31.10
2018-11-20T16:48:30.407Z,30.10
2018-11-20T16:51:19.428Z,24.83
2018-11-20T16:54:07.285Z,20.20
2018-11-20T16:56:53.874Z,17.70
2018-11-20T16:59:41.830Z,16.23
2018-11-20T17:02:28.610Z,13.53
2018-11-20T17:05:19.676Z,11.17
2018-11-20T17:07:59.728Z,9.60
2018-11-20T17:10:42.602Z,10.23
2018-11-20T17:13:22.221Z,10.10
2018-11-20T17:16:16.012Z,8.10
2018-11-20T17:19:02.693Z,7.90
2018-11-20T17:21:50.542Z,7.33
2018-11-20T17:24:53.410Z,7.30
2018-11-20T17:27:44.429Z,7.37
2018-11-20T17:30:31.554Z,9.27
2018-11-20T17:33:17.824Z,8.93
2018-11-20T17:36:20.606Z,10.50
2018-11-20T17:39:26.575Z,10.80
2018-11-20T17:42:13.096Z,11.67
2018-11-20T17:45:13.199Z,10.10
2018-11-20T17:48:03.961Z,11.73
2018-11-20T17:50:54.754Z,11.07
2018-11-20T17:53:57.924Z,10.60
2018-11-20T17:56:51.952Z,11.60
2018-11-20T17:59:39.904Z,11.00
2018-11-20T18:02:21.589Z,12.10
2018-11-20T18:05:30.071Z,11.20
2018-11-20T18:08:27.069Z,11.73
2018-11-20T18:11:23.609Z,12.50
2018-11-20T18:14:24.111Z,12.63
2018-11-20T18:17:20.187Z,14.43
2018-11-20T18:20:11.875Z,12.17
2018-11-20T18:23:11.675Z,13.53
2018-11-20T18:25:58.665Z,12.93
2018-11-20T18:28:45.511Z,11.90
2018-11-20T18:31:32.245Z,13.10
2018-11-20T18:34:25.272Z,11.30
2018-11-20T18:37:11.855Z,12.77
2018-11-20T18:40:18.126Z,12.10
2018-11-20T18:43:15.056Z,11.77
2018-11-20T18:46:06.040Z,11.53
2018-11-20T18:49:06.316Z,11.23
2018-11-20T18:51:54.143Z,13.03
2018-11-20T18:54:47.616Z,11.40
2018-11-20T18:57:41.528Z,11.27
2018-11-20T19:00:37.241Z,11.47
2018-11-20T19:03:37.233Z,10.73
2018-11-20T19:06:31.027Z,11.27
2018-11-20T19:09:18.273Z,10.23
2018-11-20T19:12:05.658Z,9.40
2018-11-20T19:14:53.334Z,10.63
2018-11-20T19:17:39.776Z,13.87
2018-11-20T19:20:19.293Z,11.47
2018-11-20T19:23:13.461Z,11.30
2018-11-20T19:25:59.730Z,12.63
2018-11-20T19:28:46.062Z,11.80
2018-11-20T19:31:41.569Z,10.93
2018-11-20T19:34:36.830Z,11.30
2018-11-20T19:37:25.393Z,10.57
2018-11-20T19:40:11.476Z,10.17
2018-11-20T19:43:05.226Z,10.97
2018-11-20T19:45:52.030Z,10.23
2018-11-20T19:48:38.536Z,10.13
2018-11-20T19:51:41.601Z,10.23
2018-11-20T19:54:38.734Z,10.60
2018-11-20T19:57:35.373Z,10.93
2018-11-20T20:00:39.848Z,10.27
2018-11-20T20:03:26.229Z,10.63
2018-11-20T20:06:13.189Z,10.27
2018-11-20T20:09:13.550Z,10.30
2018-11-20T20:11:56.911Z,10.00
2018-11-20T20:14:41.508Z,9.37
2018-11-20T20:17:38.158Z,10.57
2018-11-20T20:20:28.456Z,10.30
2018-11-20T20:23:34.573Z,10.00
2018-11-20T20:26:25.206Z,10.50
2018-11-20T20:29:24.076Z,10.57
2018-11-20T20:32:17.729Z,10.43
2018-11-20T20:35:04.375Z,10.60
2018-11-20T20:37:54.921Z,11.13
2018-11-20T20:40:57.596Z,10.80
2018-11-20T20:43:46.518Z,10.83
2018-11-20T20:46:39.686Z,10.70
2018-11-20T20:49:30.713Z,10.40
2018-11-20T20:52:22.088Z,10.80
2018-11-20T20:55:19.398Z,10.83
2018-11-20T20:58:19.376Z,22.97
2018-11-20T21:01:16.405Z,13.10
2018-11-20T21:04:02.541Z,11.87
2018-11-20T21:06:50.663Z,12.43
2018-11-20T21:09:33.677Z,12.50
2018-11-20T21:12:21.614Z,37.97
2018-11-20T21:15:21.596Z,49.30
2018-11-20T21:18:08.127Z,47.37
2018-11-20T21:20:58.751Z,48.77
2018-11-20T21:23:49.643Z,51.13
2018-11-20T21:26:33.256Z,54.07
2018-11-20T21:29:24.159Z,51.37
2018-11-20T21:32:26.847Z,53.97
2018-11-20T21:35:17.709Z,53.20
2018-11-20T21:38:04.445Z,55.17
2018-11-20T21:40:50.721Z,53.43
2018-11-20T21:43:37.344Z,54.73
2018-11-20T21:46:25.209Z,55.10
2018-11-20T21:49:11.697Z,54.63
2018-11-20T21:52:02.591Z,56.20
2018-11-20T21:55:08.924Z,56.17
2018-11-20T21:57:54.852Z,63.23
2018-11-20T22:00:52.563Z,61.43
2018-11-20T22:03:40.619Z,67.90
2018-11-20T22:06:27.222Z,68.10
2018-11-20T22:09:15.174Z,65.00
2018-11-20T22:11:57.301Z,67.20
2018-11-20T22:14:51.032Z,68.03
2018-11-20T22:17:47.989Z,66.07
2018-11-20T22:20:50.673Z,65.63
2018-11-20T22:23:37.249Z,64.90
2018-11-20T22:26:14.049Z,64.27
2018-11-20T22:29:00.445Z,68.37
2018-11-20T22:32:03.682Z,67.40
2018-11-20T22:34:51.603Z,66.63
2018-11-20T22:37:38.009Z,65.23
2018-11-20T22:40:34.985Z,63.13
2018-11-20T22:43:40.952Z,65.23
2018-11-20T22:46:37.646Z,63.13
2018-11-20T22:49:21.351Z,64.03
2018-11-20T22:52:06.300Z,61.67
2018-11-20T22:54:52.952Z,58.57
2018-11-20T22:57:56.185Z,61.53
2018-11-20T23:00:59.199Z,58.03
2018-11-20T23:03:45.692Z,57.73
2018-11-20T23:06:40.945Z,57.10
2018-11-20T23:09:11.297Z,54.93
2018-11-20T23:11:40.519Z,55.63
2018-11-20T23:14:09.325Z,53.53
2018-11-20T23:16:38.223Z,53.70
2018-11-20T23:19:07.239Z,53.87
2018-11-20T23:21:36.124Z,53.23
2018-11-20T23:24:05.262Z,54.10
2018-11-20T23:26:33.972Z,51.73
2018-11-20T23:29:02.757Z,50.07
2018-11-20T23:31:31.695Z,51.57
2018-11-20T23:34:00.683Z,50.80
2018-11-20T23:36:29.503Z,48.97
2018-11-20T23:38:58.405Z,46.73
2018-11-20T23:41:27.208Z,46.33
2018-11-20T23:43:56.006Z,45.50
2018-11-20T23:46:24.719Z,45.00
2018-11-20T23:48:53.620Z,43.70
2018-11-20T23:51:22.515Z,42.93
2018-11-20T23:53:51.244Z,42.43
2018-11-20T23:56:20.027Z,43.10
2018-11-20T23:58:48.852Z,42.40
